»·PEaware :: FDX1014 KSLC-KLAX

FDX1014 :: KSLC-KLAX

FLIGHT INFORMATION

Flight Status: Arrived
Operator:
Federal Express
More flights by this operator :: More flights under this callsign
Pilot: Jim M. (18055)
Aircraft: BOEING 777-200
(B772)
More flights by this aircraft type
Origin: KSLC Salt Lake City Intl
United States
Destination: KLAX Los Angeles Intl
United States
More flights between these airports :: More routes between these airports
Route: ARCHZ1 WINEN LAKRR Q73 HAKMN ANJLL4
File this flight plan on PilotEdge
Remarks:
Altitude:
(Current/Filed)
38,000ft
Speed:
(Current/Filed)
450kts
Departed: 14-Jun-20 10:14 AM
Arrived: 14-Jun-20 11:38 AM
Distance/Time
Traveled:
513nm/1:23
Distance/Time
To Go:
Arrived

Flight Plot

Page will automatically refresh every two minutes.

Flight plan parsing failed; only flown route is shown


Map Options




Map Legend


Flown Route
Filed Route
Departure Airport
Arrival Airport
Navaid (VOR, NDB)
Fix

Horizontal Profiles

Position Reports

Time Latitude Longitude Heading Altitude Ground
Speed
14-Jun-20 09:42 40.802410 -111.983316 318 4240ft 0kts
14-Jun-20 09:43 40.802410 -111.983316 318 4240ft 0kts
14-Jun-20 09:44 40.802410 -111.983316 318 4240ft 0kts
14-Jun-20 09:45 40.802410 -111.983316 318 4240ft 0kts
14-Jun-20 09:46 40.802410 -111.983316 318 4240ft 0kts
14-Jun-20 09:47 40.802410 -111.983316 318 4240ft 0kts
14-Jun-20 09:48 40.802410 -111.983316 318 4240ft 0kts
14-Jun-20 09:49 40.802410 -111.983316 318 4240ft 0kts
14-Jun-20 09:50 40.802410 -111.983316 318 4240ft 0kts
14-Jun-20 09:51 40.802410 -111.983316 318 4240ft 0kts
14-Jun-20 09:52 40.802410 -111.983316 318 4240ft 0kts
14-Jun-20 09:53 40.802410 -111.983316 318 4240ft 0kts
14-Jun-20 09:54 40.802410 -111.983316 318 4240ft 0kts
14-Jun-20 09:55 40.802410 -111.983316 318 4240ft 0kts
14-Jun-20 09:56 40.802410 -111.983316 318 4240ft 0kts
14-Jun-20 09:57 40.802410 -111.983316 318 4240ft 0kts
14-Jun-20 09:58 40.802410 -111.983316 318 4240ft 0kts
14-Jun-20 09:59 40.801958 -111.982992 358 4240ft 2kts
14-Jun-20 10:00 40.801512 -111.983250 47 4240ft 0kts
14-Jun-20 10:01 40.801512 -111.983250 47 4240ft 0kts
14-Jun-20 10:02 40.801512 -111.983250 47 4240ft 0kts
14-Jun-20 10:03 40.801881 -111.981891 86 4240ft 0kts
14-Jun-20 10:04 40.801881 -111.981890 86 4240ft 0kts
14-Jun-20 10:05 40.801276 -111.980348 167 4240ft 11kts
14-Jun-20 10:06 40.799020 -111.978039 174 4240ft 17kts
14-Jun-20 10:07 40.794727 -111.977494 175 4240ft 21kts
14-Jun-20 10:08 40.788110 -111.976747 175 4240ft 20kts
14-Jun-20 10:09 40.782634 -111.976105 175 4240ft 20kts
14-Jun-20 10:10 40.777170 -111.975464 175 4240ft 17kts
14-Jun-20 10:11 40.774460 -111.974524 104 4240ft 2kts
14-Jun-20 10:12 40.774857 -111.973425 39 4240ft 7kts
14-Jun-20 10:13 40.784493 -111.974266 354 4240ft 135kts
14-Jun-20 10:14 40.840924 -111.990144 314 6349ft 250kts
14-Jun-20 10:15 40.853675 -112.080109 271 9690ft 260kts
14-Jun-20 10:16 40.830890 -112.165103 212 12894ft 290kts
14-Jun-20 10:17 40.746463 -112.212331 205 15140ft 364kts
14-Jun-20 10:18 40.648664 -112.265849 206 18505ft 390kts
14-Jun-20 10:19 40.545373 -112.320920 205 21609ft 412kts
14-Jun-20 10:20 40.433021 -112.366069 203 24464ft 430kts
14-Jun-20 10:21 40.316258 -112.413378 204 27120ft 448kts
14-Jun-20 10:22 40.195108 -112.463864 209 29588ft 461kts
14-Jun-20 10:23 40.081324 -112.538855 215 32635ft 447kts
14-Jun-20 10:24 39.972711 -112.615155 215 34881ft 444kts
14-Jun-20 10:25 39.864516 -112.691402 215 36731ft 442kts
14-Jun-20 10:26 39.756058 -112.766615 215 38125ft 443kts
14-Jun-20 10:27 39.645026 -112.836253 207 38139ft 448kts
14-Jun-20 10:28 39.524925 -112.882404 204 38139ft 450kts
14-Jun-20 10:29 39.405219 -112.928800 205 38139ft 450kts
14-Jun-20 10:30 39.285296 -112.976332 205 38142ft 450kts
14-Jun-20 10:31 39.165231 -113.023784 205 38141ft 450kts
14-Jun-20 10:32 39.045286 -113.070935 205 38139ft 451kts
14-Jun-20 10:33 38.924758 -113.118147 205 38132ft 452kts
14-Jun-20 10:35 38.804392 -113.165121 204 38129ft 453kts
14-Jun-20 10:36 38.683311 -113.212200 204 38129ft 454kts
14-Jun-20 10:37 38.562532 -113.259007 204 38128ft 455kts
14-Jun-20 10:38 38.441079 -113.305895 204 38128ft 456kts
14-Jun-20 10:39 38.319282 -113.352749 204 38127ft 457kts
14-Jun-20 10:40 38.197358 -113.399615 204 38125ft 458kts
14-Jun-20 10:41 38.075197 -113.446194 204 38123ft 458kts
14-Jun-20 10:42 37.952834 -113.492706 203 38121ft 459kts
14-Jun-20 10:43 37.831435 -113.544406 206 38117ft 459kts
14-Jun-20 10:44 37.710717 -113.597143 205 38109ft 459kts
14-Jun-20 10:45 37.589931 -113.649301 205 38080ft 459kts
14-Jun-20 10:46 37.469117 -113.701734 205 38053ft 459kts
14-Jun-20 10:47 37.348056 -113.753801 205 38028ft 459kts
14-Jun-20 10:48 37.226929 -113.805695 205 38012ft 459kts
14-Jun-20 10:49 37.106213 -113.857227 204 38008ft 459kts
14-Jun-20 10:50 36.985047 -113.908781 204 38015ft 459kts
14-Jun-20 10:51 36.864304 -113.959971 204 38002ft 459kts
14-Jun-20 10:52 36.743092 -114.011213 204 37997ft 460kts
14-Jun-20 10:53 36.621357 -114.062461 203 37994ft 461kts
14-Jun-20 10:53 36.520138 -114.104970 203 37995ft 461kts
14-Jun-20 10:55 36.378244 -114.164354 203 37994ft 461kts
14-Jun-20 10:55 36.277171 -114.206602 203 37992ft 460kts
14-Jun-20 10:56 36.155848 -114.256827 203 37975ft 460kts
14-Jun-20 10:58 36.033330 -114.353763 233 37968ft 454kts
14-Jun-20 10:58 35.965314 -114.452910 232 37972ft 454kts
14-Jun-20 10:59 35.880665 -114.569228 231 37968ft 456kts
14-Jun-20 11:00 35.796413 -114.686015 231 37963ft 456kts
14-Jun-20 11:01 35.711130 -114.802249 231 37959ft 456kts
14-Jun-20 11:02 35.626354 -114.918627 232 37969ft 457kts
14-Jun-20 11:03 35.541251 -115.034416 231 37965ft 457kts
14-Jun-20 11:04 35.455160 -115.149249 230 37961ft 457kts
14-Jun-20 11:05 35.367583 -115.262805 230 37959ft 458kts
14-Jun-20 11:06 35.280715 -115.376817 230 37959ft 457kts
14-Jun-20 11:07 35.193111 -115.489732 230 37969ft 457kts
14-Jun-20 11:08 35.105651 -115.602512 230 37985ft 458kts
14-Jun-20 11:09 35.017253 -115.715224 230 37991ft 458kts
14-Jun-20 11:10 34.929633 -115.827772 230 37999ft 458kts
14-Jun-20 11:11 34.841892 -115.938603 230 37593ft 440kts
14-Jun-20 11:12 34.756579 -116.046762 231 35065ft 446kts
14-Jun-20 11:13 34.670425 -116.156393 230 32608ft 450kts
14-Jun-20 11:14 34.582978 -116.267991 230 30696ft 446kts
14-Jun-20 11:15 34.499189 -116.373590 229 28466ft 437kts
14-Jun-20 11:16 34.416442 -116.485804 236 25508ft 448kts
14-Jun-20 11:17 34.360549 -116.614732 246 24556ft 414kts
14-Jun-20 11:18 34.311474 -116.735326 247 23329ft 392kts
14-Jun-20 11:19 34.264342 -116.852089 246 21686ft 381kts
14-Jun-20 11:20 34.218064 -116.966221 247 20042ft 373kts
14-Jun-20 11:21 34.184359 -117.082809 255 18375ft 364kts
14-Jun-20 11:22 34.153248 -117.197399 254 16752ft 356kts
14-Jun-20 11:23 34.122011 -117.310089 254 15201ft 350kts
14-Jun-20 11:24 34.092846 -117.420410 256 13709ft 338kts
14-Jun-20 11:25 34.064556 -117.526240 251 12273ft 324kts
14-Jun-20 11:26 34.030433 -117.617841 251 10991ft 286kts
14-Jun-20 11:27 34.003220 -117.708798 265 9738ft 286kts
14-Jun-20 11:28 33.995653 -117.804134 267 8505ft 285kts
14-Jun-20 11:29 33.986004 -117.898430 267 7278ft 283kts
14-Jun-20 11:30 33.976791 -117.991877 267 6067ft 278kts
14-Jun-20 11:31 33.967675 -118.083550 267 4866ft 262kts
14-Jun-20 11:32 33.959955 -118.161109 268 3617ft 235kts
14-Jun-20 11:33 33.952784 -118.232686 269 2554ft 189kts
14-Jun-20 11:34 33.947197 -118.287363 268 1706ft 153kts
14-Jun-20 11:35 33.940399 -118.334790 265 839ft 140kts
14-Jun-20 11:36 33.937403 -118.380878 263 194ft 138kts
14-Jun-20 11:37 33.934889 -118.401803 220 139ft 8kts
14-Jun-20 11:38 33.934375 -118.402230 209 139ft 5kts
14-Jun-20 11:39 33.933290 -118.402253 173 140ft 0kts

Navigation Log

Ident Type
Flight plan parsing failed, navigation log unavailable